sensor_id;sensor_type;location;lat;lon;timestamp;P1;durP1;ratioP1;P2;durP2;ratioP2
1382;SDS011;685;47.196;11.880;2023-02-22T00:00:12;2.43;;;1.57;;
1382;SDS011;685;47.196;11.880;2023-02-22T00:02:47;1.77;;;1.33;;
1382;SDS011;685;47.196;11.880;2023-02-22T00:05:14;3.83;;;1.80;;
1382;SDS011;685;47.196;11.880;2023-02-22T00:07:44;4.37;;;2.20;;
1382;SDS011;685;47.196;11.880;2023-02-22T00:10:13;2.37;;;1.93;;
1382;SDS011;685;47.196;11.880;2023-02-22T00:12:44;2.33;;;1.20;;
1382;SDS011;685;47.196;11.880;2023-02-22T00:15:12;2.30;;;1.43;;
1382;SDS011;685;47.196;11.880;2023-02-22T00:17:41;2.80;;;1.00;;
1382;SDS011;685;47.196;11.880;2023-02-22T00:20:09;1.80;;;1.10;;
1382;SDS011;685;47.196;11.880;2023-02-22T00:22:38;1.50;;;0.83;;
1382;SDS011;685;47.196;11.880;2023-02-22T00:25:06;2.00;;;1.30;;
1382;SDS011;685;47.196;11.880;2023-02-22T00:27:35;1.80;;;1.00;;
1382;SDS011;685;47.196;11.880;2023-02-22T00:30:02;1.80;;;1.20;;
1382;SDS011;685;47.196;11.880;2023-02-22T00:32:30;2.97;;;0.80;;
1382;SDS011;685;47.196;11.880;2023-02-22T00:34:57;1.80;;;1.17;;
1382;SDS011;685;47.196;11.880;2023-02-22T00:37:24;2.77;;;1.00;;
1382;SDS011;685;47.196;11.880;2023-02-22T00:39:51;3.07;;;1.33;;
1382;SDS011;685;47.196;11.880;2023-02-22T00:42:18;3.23;;;1.03;;
1382;SDS011;685;47.196;11.880;2023-02-22T00:44:46;1.60;;;0.90;;
1382;SDS011;685;47.196;11.880;2023-02-22T00:47:13;1.50;;;1.10;;
1382;SDS011;685;47.196;11.880;2023-02-22T00:49:40;1.60;;;1.00;;
1382;SDS011;685;47.196;11.880;2023-02-22T00:52:07;1.30;;;0.70;;
1382;SDS011;685;47.196;11.880;2023-02-22T00:54:34;1.53;;;1.00;;
1382;SDS011;685;47.196;11.880;2023-02-22T00:57:01;1.10;;;0.80;;
1382;SDS011;685;47.196;11.880;2023-02-22T00:59:29;4.03;;;1.17;;
1382;SDS011;685;47.196;11.880;2023-02-22T01:01:57;1.00;;;0.77;;
1382;SDS011;685;47.196;11.880;2023-02-22T01:04:24;1.50;;;0.80;;
1382;SDS011;685;47.196;11.880;2023-02-22T01:06:51;4.70;;;1.43;;
1382;SDS011;685;47.196;11.880;2023-02-22T01:09:19;1.73;;;1.00;;
1382;SDS011;685;47.196;11.880;2023-02-22T01:11:46;1.40;;;0.63;;
1382;SDS011;685;47.196;11.880;2023-02-22T01:14:13;1.30;;;0.70;;
1382;SDS011;685;47.196;11.880;2023-02-22T01:16:42;1.77;;;0.67;;
1382;SDS011;685;47.196;11.880;2023-02-22T01:19:10;2.77;;;0.93;;
1382;SDS011;685;47.196;11.880;2023-02-22T01:21:38;1.33;;;0.70;;
1382;SDS011;685;47.196;11.880;2023-02-22T01:24:06;2.17;;;1.10;;
1382;SDS011;685;47.196;11.880;2023-02-22T01:26:33;2.63;;;1.87;;
1382;SDS011;685;47.196;11.880;2023-02-22T01:29:00;2.70;;;1.40;;
1382;SDS011;685;47.196;11.880;2023-02-22T01:31:27;3.53;;;1.90;;
1382;SDS011;685;47.196;11.880;2023-02-22T01:33:53;1.40;;;1.10;;
1382;SDS011;685;47.196;11.880;2023-02-22T01:36:22;1.37;;;1.00;;
1382;SDS011;685;47.196;11.880;2023-02-22T01:38:48;1.97;;;0.80;;
1382;SDS011;685;47.196;11.880;2023-02-22T01:41:15;1.93;;;0.87;;
1382;SDS011;685;47.196;11.880;2023-02-22T01:43:42;1.60;;;0.70;;
1382;SDS011;685;47.196;11.880;2023-02-22T01:46:18;1.10;;;0.60;;
1382;SDS011;685;47.196;11.880;2023-02-22T01:48:48;3.43;;;0.60;;
1382;SDS011;685;47.196;11.880;2023-02-22T01:51:17;1.47;;;0.80;;
1382;SDS011;685;47.196;11.880;2023-02-22T01:53:48;1.43;;;0.67;;
1382;SDS011;685;47.196;11.880;2023-02-22T01:56:18;2.90;;;0.80;;
1382;SDS011;685;47.196;11.880;2023-02-22T01:58:47;1.00;;;0.53;;
1382;SDS011;685;47.196;11.880;2023-02-22T02:01:17;1.30;;;0.70;;
1382;SDS011;685;47.196;11.880;2023-02-22T02:03:47;1.90;;;0.90;;
1382;SDS011;685;47.196;11.880;2023-02-22T02:06:15;1.43;;;0.90;;
1382;SDS011;685;47.196;11.880;2023-02-22T02:08:49;2.23;;;0.83;;
1382;SDS011;685;47.196;11.880;2023-02-22T02:11:22;1.10;;;0.70;;
1382;SDS011;685;47.196;11.880;2023-02-22T02:13:50;1.00;;;0.70;;
1382;SDS011;685;47.196;11.880;2023-02-22T02:16:20;1.23;;;0.60;;
1382;SDS011;685;47.196;11.880;2023-02-22T02:18:47;1.00;;;0.70;;
1382;SDS011;685;47.196;11.880;2023-02-22T02:21:24;3.63;;;0.70;;
1382;SDS011;685;47.196;11.880;2023-02-22T02:24:22;1.87;;;0.90;;
1382;SDS011;685;47.196;11.880;2023-02-22T02:27:17;3.77;;;0.90;;
1382;SDS011;685;47.196;11.880;2023-02-22T02:32:56;2.90;;;1.00;;
1382;SDS011;685;47.196;11.880;2023-02-22T02:35:31;1.80;;;0.90;;
1382;SDS011;685;47.196;11.880;2023-02-22T02:38:11;1.47;;;1.10;;
1382;SDS011;685;47.196;11.880;2023-02-22T02:40:46;1.20;;;0.90;;
1382;SDS011;685;47.196;11.880;2023-02-22T02:43:20;2.27;;;1.10;;
1382;SDS011;685;47.196;11.880;2023-02-22T02:45:53;1.80;;;0.97;;
1382;SDS011;685;47.196;11.880;2023-02-22T02:48:28;1.20;;;1.00;;
1382;SDS011;685;47.196;11.880;2023-02-22T02:50:59;1.20;;;0.57;;
1382;SDS011;685;47.196;11.880;2023-02-22T02:53:30;1.20;;;0.50;;
1382;SDS011;685;47.196;11.880;2023-02-22T02:56:00;1.20;;;0.60;;
1382;SDS011;685;47.196;11.880;2023-02-22T02:58:27;2.13;;;0.70;;
1382;SDS011;685;47.196;11.880;2023-02-22T03:00:55;1.50;;;0.57;;
1382;SDS011;685;47.196;11.880;2023-02-22T03:03:39;1.20;;;0.67;;
1382;SDS011;685;47.196;11.880;2023-02-22T03:06:21;1.10;;;0.80;;
1382;SDS011;685;47.196;11.880;2023-02-22T03:09:02;2.00;;;0.80;;
1382;SDS011;685;47.196;11.880;2023-02-22T03:11:39;3.00;;;0.70;;
1382;SDS011;685;47.196;11.880;2023-02-22T03:14:19;1.53;;;0.80;;
1382;SDS011;685;47.196;11.880;2023-02-22T03:16:53;1.47;;;0.90;;
1382;SDS011;685;47.196;11.880;2023-02-22T03:19:31;0.93;;;0.70;;
1382;SDS011;685;47.196;11.880;2023-02-22T03:22:01;1.20;;;0.60;;
1382;SDS011;685;47.196;11.880;2023-02-22T03:24:36;3.90;;;0.90;;
1382;SDS011;685;47.196;11.880;2023-02-22T03:27:17;2.27;;;0.90;;
1382;SDS011;685;47.196;11.880;2023-02-22T03:29:49;2.50;;;0.83;;
1382;SDS011;685;47.196;11.880;2023-02-22T03:32:21;2.17;;;1.37;;
1382;SDS011;685;47.196;11.880;2023-02-22T03:34:55;3.50;;;1.47;;
1382;SDS011;685;47.196;11.880;2023-02-22T03:37:26;3.00;;;2.17;;
1382;SDS011;685;47.196;11.880;2023-02-22T03:39:55;4.10;;;1.83;;
1382;SDS011;685;47.196;11.880;2023-02-22T03:42:27;2.27;;;1.27;;
1382;SDS011;685;47.196;11.880;2023-02-22T03:44:57;2.33;;;0.87;;
1382;SDS011;685;47.196;11.880;2023-02-22T03:47:27;1.00;;;0.50;;
1382;SDS011;685;47.196;11.880;2023-02-22T03:50:00;2.27;;;0.80;;
1382;SDS011;685;47.196;11.880;2023-02-22T03:52:31;1.47;;;0.83;;
1382;SDS011;685;47.196;11.880;2023-02-22T03:55:00;1.50;;;0.70;;
1382;SDS011;685;47.196;11.880;2023-02-22T03:57:28;2.70;;;1.60;;
1382;SDS011;685;47.196;11.880;2023-02-22T04:00:00;2.10;;;1.63;;
1382;SDS011;685;47.196;11.880;2023-02-22T04:02:31;3.50;;;2.13;;
1382;SDS011;685;47.196;11.880;2023-02-22T04:04:57;1.70;;;1.50;;
1382;SDS011;685;47.196;11.880;2023-02-22T04:07:26;3.73;;;1.87;;
1382;SDS011;685;47.196;11.880;2023-02-22T04:09:53;5.03;;;1.90;;
1382;SDS011;685;47.196;11.880;2023-02-22T04:12:20;2.27;;;1.90;;
1382;SDS011;685;47.196;11.880;2023-02-22T04:14:47;3.40;;;2.00;;
1382;SDS011;685;47.196;11.880;2023-02-22T04:17:13;4.23;;;2.00;;
1382;SDS011;685;47.196;11.880;2023-02-22T04:19:40;1.40;;;1.30;;
1382;SDS011;685;47.196;11.880;2023-02-22T04:22:09;3.03;;;1.93;;
1382;SDS011;685;47.196;11.880;2023-02-22T04:24:38;2.70;;;1.10;;
1382;SDS011;685;47.196;11.880;2023-02-22T04:27:04;1.27;;;1.07;;
1382;SDS011;685;47.196;11.880;2023-02-22T04:29:31;1.23;;;0.97;;
1382;SDS011;685;47.196;11.880;2023-02-22T04:31:58;1.87;;;1.00;;
1382;SDS011;685;47.196;11.880;2023-02-22T04:34:25;1.83;;;1.10;;
1382;SDS011;685;47.196;11.880;2023-02-22T04:36:52;3.33;;;1.20;;
1382;SDS011;685;47.196;11.880;2023-02-22T04:39:19;1.70;;;1.13;;
1382;SDS011;685;47.196;11.880;2023-02-22T04:41:47;1.67;;;1.00;;
1382;SDS011;685;47.196;11.880;2023-02-22T04:44:14;1.30;;;1.00;;
1382;SDS011;685;47.196;11.880;2023-02-22T04:46:41;2.40;;;0.90;;
1382;SDS011;685;47.196;11.880;2023-02-22T04:49:08;1.40;;;0.93;;
1382;SDS011;685;47.196;11.880;2023-02-22T04:51:35;0.90;;;0.60;;
1382;SDS011;685;47.196;11.880;2023-02-22T04:54:02;1.50;;;0.80;;
1382;SDS011;685;47.196;11.880;2023-02-22T04:56:29;1.10;;;0.60;;
1382;SDS011;685;47.196;11.880;2023-02-22T04:58:57;1.50;;;0.63;;
1382;SDS011;685;47.196;11.880;2023-02-22T05:01:24;1.70;;;1.17;;
1382;SDS011;685;47.196;11.880;2023-02-22T05:03:55;1.30;;;0.80;;
1382;SDS011;685;47.196;11.880;2023-02-22T05:06:22;2.17;;;1.00;;
1382;SDS011;685;47.196;11.880;2023-02-22T05:08:49;1.50;;;0.90;;
1382;SDS011;685;47.196;11.880;2023-02-22T05:11:17;1.37;;;0.90;;
1382;SDS011;685;47.196;11.880;2023-02-22T05:13:44;3.10;;;1.03;;
1382;SDS011;685;47.196;11.880;2023-02-22T05:16:20;1.30;;;0.87;;
1382;SDS011;685;47.196;11.880;2023-02-22T05:18:48;0.90;;;0.70;;
1382;SDS011;685;47.196;11.880;2023-02-22T05:21:24;1.10;;;0.97;;
1382;SDS011;685;47.196;11.880;2023-02-22T05:24:42;1.20;;;0.87;;
1382;SDS011;685;47.196;11.880;2023-02-22T05:31:14;1.63;;;1.40;;
1382;SDS011;685;47.196;11.880;2023-02-22T05:34:38;1.47;;;1.20;;
1382;SDS011;685;47.196;11.880;2023-02-22T05:40:53;4.87;;;4.23;;
1382;SDS011;685;47.196;11.880;2023-02-22T05:43:37;4.77;;;4.37;;
1382;SDS011;685;47.196;11.880;2023-02-22T05:46:04;8.77;;;7.30;;
1382;SDS011;685;47.196;11.880;2023-02-22T05:48:33;5.50;;;4.73;;
1382;SDS011;685;47.196;11.880;2023-02-22T05:51:00;4.60;;;3.37;;
1382;SDS011;685;47.196;11.880;2023-02-22T05:53:27;3.63;;;3.00;;
1382;SDS011;685;47.196;11.880;2023-02-22T05:55:54;7.30;;;5.60;;
1382;SDS011;685;47.196;11.880;2023-02-22T05:58:22;2.83;;;2.03;;
1382;SDS011;685;47.196;11.880;2023-02-22T06:00:48;2.00;;;1.80;;
1382;SDS011;685;47.196;11.880;2023-02-22T06:06:55;5.10;;;4.23;;
1382;SDS011;685;47.196;11.880;2023-02-22T06:09:43;4.70;;;3.80;;
1382;SDS011;685;47.196;11.880;2023-02-22T06:12:32;5.43;;;3.27;;
1382;SDS011;685;47.196;11.880;2023-02-22T06:15:00;3.00;;;1.87;;
1382;SDS011;685;47.196;11.880;2023-02-22T06:23:47;3.47;;;2.00;;
1382;SDS011;685;47.196;11.880;2023-02-22T06:26:14;3.13;;;2.03;;
1382;SDS011;685;47.196;11.880;2023-02-22T06:28:42;1.87;;;1.70;;
1382;SDS011;685;47.196;11.880;2023-02-22T06:31:10;3.10;;;1.83;;
1382;SDS011;685;47.196;11.880;2023-02-22T06:33:36;3.70;;;2.10;;
1382;SDS011;685;47.196;11.880;2023-02-22T06:36:04;2.70;;;1.80;;
1382;SDS011;685;47.196;11.880;2023-02-22T06:38:31;2.90;;;1.40;;
1382;SDS011;685;47.196;11.880;2023-02-22T06:41:00;1.70;;;1.20;;
1382;SDS011;685;47.196;11.880;2023-02-22T06:43:27;2.03;;;1.40;;
1382;SDS011;685;47.196;11.880;2023-02-22T06:45:54;1.60;;;1.50;;
1382;SDS011;685;47.196;11.880;2023-02-22T06:48:21;2.80;;;1.30;;
1382;SDS011;685;47.196;11.880;2023-02-22T06:53:56;1.50;;;1.10;;
1382;SDS011;685;47.196;11.880;2023-02-22T06:56:24;3.33;;;1.33;;
1382;SDS011;685;47.196;11.880;2023-02-22T06:58:51;1.40;;;1.20;;
1382;SDS011;685;47.196;11.880;2023-02-22T07:01:18;1.50;;;1.20;;
1382;SDS011;685;47.196;11.880;2023-02-22T07:03:45;1.60;;;1.47;;
1382;SDS011;685;47.196;11.880;2023-02-22T07:06:13;4.40;;;1.60;;
1382;SDS011;685;47.196;11.880;2023-02-22T07:08:40;2.33;;;2.10;;
1382;SDS011;685;47.196;11.880;2023-02-22T07:11:07;3.03;;;2.20;;
1382;SDS011;685;47.196;11.880;2023-02-22T07:13:35;2.67;;;2.47;;
1382;SDS011;685;47.196;11.880;2023-02-22T07:16:02;2.70;;;2.47;;
1382;SDS011;685;47.196;11.880;2023-02-22T07:18:29;3.23;;;2.23;;
1382;SDS011;685;47.196;11.880;2023-02-22T07:20:56;4.10;;;3.43;;
1382;SDS011;685;47.196;11.880;2023-02-22T07:23:23;4.77;;;3.60;;
1382;SDS011;685;47.196;11.880;2023-02-22T07:25:51;6.40;;;4.33;;
1382;SDS011;685;47.196;11.880;2023-02-22T07:28:18;9.83;;;4.20;;
1382;SDS011;685;47.196;11.880;2023-02-22T07:30:46;3.73;;;3.10;;
1382;SDS011;685;47.196;11.880;2023-02-22T07:33:13;3.77;;;3.47;;
1382;SDS011;685;47.196;11.880;2023-02-22T07:35:42;3.70;;;3.33;;
1382;SDS011;685;47.196;11.880;2023-02-22T07:38:12;8.83;;;5.40;;
1382;SDS011;685;47.196;11.880;2023-02-22T07:40:40;6.13;;;5.20;;
1382;SDS011;685;47.196;11.880;2023-02-22T07:43:12;8.40;;;6.33;;
1382;SDS011;685;47.196;11.880;2023-02-22T07:45:40;6.40;;;4.60;;
1382;SDS011;685;47.196;11.880;2023-02-22T07:48:09;5.40;;;3.77;;
1382;SDS011;685;47.196;11.880;2023-02-22T07:50:37;5.53;;;4.20;;
1382;SDS011;685;47.196;11.880;2023-02-22T07:53:05;6.07;;;3.60;;
1382;SDS011;685;47.196;11.880;2023-02-22T07:55:35;3.97;;;2.57;;
1382;SDS011;685;47.196;11.880;2023-02-22T07:58:02;4.40;;;2.90;;
1382;SDS011;685;47.196;11.880;2023-02-22T08:00:31;4.57;;;3.43;;
1382;SDS011;685;47.196;11.880;2023-02-22T08:02:59;4.40;;;3.47;;
1382;SDS011;685;47.196;11.880;2023-02-22T08:05:29;7.80;;;5.57;;
1382;SDS011;685;47.196;11.880;2023-02-22T08:07:59;6.60;;;4.83;;
1382;SDS011;685;47.196;11.880;2023-02-22T08:10:26;5.83;;;4.40;;
1382;SDS011;685;47.196;11.880;2023-02-22T08:12:55;9.13;;;6.17;;
1382;SDS011;685;47.196;11.880;2023-02-22T08:15:23;5.83;;;3.00;;
1382;SDS011;685;47.196;11.880;2023-02-22T08:17:52;6.70;;;3.00;;
1382;SDS011;685;47.196;11.880;2023-02-22T08:20:19;5.13;;;2.93;;
1382;SDS011;685;47.196;11.880;2023-02-22T08:22:49;8.10;;;6.10;;
1382;SDS011;685;47.196;11.880;2023-02-22T08:25:17;6.23;;;3.63;;
1382;SDS011;685;47.196;11.880;2023-02-22T08:27:45;3.20;;;2.57;;
1382;SDS011;685;47.196;11.880;2023-02-22T08:30:15;7.53;;;4.70;;
1382;SDS011;685;47.196;11.880;2023-02-22T08:32:44;27.27;;;15.90;;
1382;SDS011;685;47.196;11.880;2023-02-22T08:35:11;18.60;;;11.27;;
1382;SDS011;685;47.196;11.880;2023-02-22T08:37:40;9.70;;;7.23;;
1382;SDS011;685;47.196;11.880;2023-02-22T08:40:10;8.20;;;6.07;;
1382;SDS011;685;47.196;11.880;2023-02-22T08:42:37;4.60;;;3.80;;
1382;SDS011;685;47.196;11.880;2023-02-22T08:45:05;8.30;;;5.17;;
1382;SDS011;685;47.196;11.880;2023-02-22T08:47:32;6.17;;;3.00;;
1382;SDS011;685;47.196;11.880;2023-02-22T08:49:59;10.50;;;9.40;;
1382;SDS011;685;47.196;11.880;2023-02-22T08:52:26;7.40;;;6.70;;
1382;SDS011;685;47.196;11.880;2023-02-22T08:54:53;5.90;;;4.90;;
1382;SDS011;685;47.196;11.880;2023-02-22T08:57:22;8.90;;;5.10;;
1382;SDS011;685;47.196;11.880;2023-02-22T08:59:49;8.20;;;7.40;;
1382;SDS011;685;47.196;11.880;2023-02-22T09:02:18;11.77;;;8.53;;
1382;SDS011;685;47.196;11.880;2023-02-22T09:04:46;7.43;;;5.40;;
1382;SDS011;685;47.196;11.880;2023-02-22T09:07:13;7.10;;;5.13;;
1382;SDS011;685;47.196;11.880;2023-02-22T09:09:41;8.33;;;5.53;;
1382;SDS011;685;47.196;11.880;2023-02-22T09:12:08;4.17;;;3.77;;
1382;SDS011;685;47.196;11.880;2023-02-22T09:14:36;2.90;;;2.50;;
1382;SDS011;685;47.196;11.880;2023-02-22T09:17:03;7.30;;;5.90;;
1382;SDS011;685;47.196;11.880;2023-02-22T09:19:30;8.20;;;5.97;;
1382;SDS011;685;47.196;11.880;2023-02-22T09:21:57;4.10;;;3.70;;
1382;SDS011;685;47.196;11.880;2023-02-22T09:24:25;7.43;;;4.90;;
1382;SDS011;685;47.196;11.880;2023-02-22T09:26:52;6.10;;;5.50;;
1382;SDS011;685;47.196;11.880;2023-02-22T09:29:19;7.77;;;4.60;;
1382;SDS011;685;47.196;11.880;2023-02-22T09:31:49;4.30;;;3.83;;
1382;SDS011;685;47.196;11.880;2023-02-22T09:34:18;5.10;;;3.63;;
1382;SDS011;685;47.196;11.880;2023-02-22T09:36:47;4.60;;;3.70;;
1382;SDS011;685;47.196;11.880;2023-02-22T09:39:15;4.17;;;3.77;;
1382;SDS011;685;47.196;11.880;2023-02-22T09:41:45;5.83;;;3.30;;
1382;SDS011;685;47.196;11.880;2023-02-22T09:44:21;6.17;;;3.57;;
1382;SDS011;685;47.196;11.880;2023-02-22T09:46:56;3.33;;;2.77;;
1382;SDS011;685;47.196;11.880;2023-02-22T09:49:23;3.40;;;2.40;;
1382;SDS011;685;47.196;11.880;2023-02-22T09:51:57;5.37;;;2.47;;
1382;SDS011;685;47.196;11.880;2023-02-22T09:54:28;7.37;;;3.50;;
1382;SDS011;685;47.196;11.880;2023-02-22T09:56:59;5.40;;;4.90;;
1382;SDS011;685;47.196;11.880;2023-02-22T09:59:30;5.00;;;4.00;;
1382;SDS011;685;47.196;11.880;2023-02-22T10:02:10;3.77;;;3.37;;
1382;SDS011;685;47.196;11.880;2023-02-22T10:04:47;6.13;;;2.60;;
1382;SDS011;685;47.196;11.880;2023-02-22T10:07:19;3.13;;;2.27;;
1382;SDS011;685;47.196;11.880;2023-02-22T10:09:50;5.93;;;4.00;;
1382;SDS011;685;47.196;11.880;2023-02-22T10:12:26;6.77;;;5.50;;
1382;SDS011;685;47.196;11.880;2023-02-22T10:18:04;5.07;;;4.10;;
1382;SDS011;685;47.196;11.880;2023-02-22T10:20:51;5.00;;;3.70;;
1382;SDS011;685;47.196;11.880;2023-02-22T10:23:23;4.43;;;3.50;;
1382;SDS011;685;47.196;11.880;2023-02-22T10:26:00;3.13;;;2.23;;
1382;SDS011;685;47.196;11.880;2023-02-22T10:28:39;1.87;;;1.67;;
1382;SDS011;685;47.196;11.880;2023-02-22T10:31:14;5.83;;;2.63;;
1382;SDS011;685;47.196;11.880;2023-02-22T10:33:50;5.90;;;3.80;;
1382;SDS011;685;47.196;11.880;2023-02-22T10:36:23;3.87;;;3.20;;
1382;SDS011;685;47.196;11.880;2023-02-22T10:38:52;12.33;;;4.40;;
1382;SDS011;685;47.196;11.880;2023-02-22T10:41:23;1.90;;;1.53;;
1382;SDS011;685;47.196;11.880;2023-02-22T10:43:54;6.10;;;2.30;;
1382;SDS011;685;47.196;11.880;2023-02-22T10:46:22;3.57;;;1.90;;
1382;SDS011;685;47.196;11.880;2023-02-22T10:48:54;3.27;;;2.20;;
1382;SDS011;685;47.196;11.880;2023-02-22T10:51:26;3.80;;;2.40;;
1382;SDS011;685;47.196;11.880;2023-02-22T10:53:57;4.20;;;2.17;;
1382;SDS011;685;47.196;11.880;2023-02-22T10:56:32;2.97;;;2.10;;
1382;SDS011;685;47.196;11.880;2023-02-22T10:59:01;3.10;;;2.33;;
1382;SDS011;685;47.196;11.880;2023-02-22T11:01:33;4.80;;;2.80;;
1382;SDS011;685;47.196;11.880;2023-02-22T11:04:04;2.03;;;1.60;;
1382;SDS011;685;47.196;11.880;2023-02-22T11:06:37;2.40;;;1.50;;
1382;SDS011;685;47.196;11.880;2023-02-22T11:09:10;2.07;;;1.70;;
1382;SDS011;685;47.196;11.880;2023-02-22T11:11:39;2.40;;;1.47;;
1382;SDS011;685;47.196;11.880;2023-02-22T11:14:09;3.37;;;1.40;;
1382;SDS011;685;47.196;11.880;2023-02-22T11:16:38;2.43;;;1.80;;
1382;SDS011;685;47.196;11.880;2023-02-22T11:19:17;2.20;;;1.30;;
1382;SDS011;685;47.196;11.880;2023-02-22T11:21:48;3.07;;;1.80;;
1382;SDS011;685;47.196;11.880;2023-02-22T11:24:17;2.90;;;1.60;;
1382;SDS011;685;47.196;11.880;2023-02-22T11:26:49;2.10;;;1.53;;
1382;SDS011;685;47.196;11.880;2023-02-22T11:29:18;2.43;;;1.63;;
1382;SDS011;685;47.196;11.880;2023-02-22T11:31:48;1.83;;;1.20;;
1382;SDS011;685;47.196;11.880;2023-02-22T11:34:33;3.00;;;1.87;;
1382;SDS011;685;47.196;11.880;2023-02-22T11:40:06;3.37;;;1.40;;
1382;SDS011;685;47.196;11.880;2023-02-22T11:42:41;2.73;;;1.60;;
1382;SDS011;685;47.196;11.880;2023-02-22T11:45:10;2.20;;;1.23;;
1382;SDS011;685;47.196;11.880;2023-02-22T11:47:49;1.73;;;1.40;;
1382;SDS011;685;47.196;11.880;2023-02-22T11:50:29;1.80;;;1.30;;
1382;SDS011;685;47.196;11.880;2023-02-22T11:53:02;2.73;;;1.93;;
1382;SDS011;685;47.196;11.880;2023-02-22T11:55:38;1.30;;;1.07;;
1382;SDS011;685;47.196;11.880;2023-02-22T11:58:22;2.93;;;1.40;;
1382;SDS011;685;47.196;11.880;2023-02-22T12:01:01;1.60;;;1.40;;
1382;SDS011;685;47.196;11.880;2023-02-22T12:03:45;4.10;;;1.77;;
1382;SDS011;685;47.196;11.880;2023-02-22T12:06:38;2.70;;;1.83;;
1382;SDS011;685;47.196;11.880;2023-02-22T12:09:11;3.00;;;1.70;;
1382;SDS011;685;47.196;11.880;2023-02-22T12:11:46;1.40;;;1.23;;
1382;SDS011;685;47.196;11.880;2023-02-22T12:14:25;1.90;;;1.13;;
1382;SDS011;685;47.196;11.880;2023-02-22T12:17:07;3.23;;;1.20;;
1382;SDS011;685;47.196;11.880;2023-02-22T12:19:43;2.47;;;1.30;;
1382;SDS011;685;47.196;11.880;2023-02-22T12:22:16;2.30;;;1.20;;
1382;SDS011;685;47.196;11.880;2023-02-22T12:24:48;2.63;;;1.33;;
1382;SDS011;685;47.196;11.880;2023-02-22T12:27:21;8.73;;;1.83;;
1382;SDS011;685;47.196;11.880;2023-02-22T12:29:53;3.80;;;2.00;;
1382;SDS011;685;47.196;11.880;2023-02-22T12:32:28;2.80;;;1.97;;
1382;SDS011;685;47.196;11.880;2023-02-22T12:35:03;2.80;;;1.80;;
1382;SDS011;685;47.196;11.880;2023-02-22T12:37:42;1.83;;;1.17;;
1382;SDS011;685;47.196;11.880;2023-02-22T12:40:18;5.23;;;1.70;;
1382;SDS011;685;47.196;11.880;2023-02-22T12:42:50;1.70;;;1.60;;
1382;SDS011;685;47.196;11.880;2023-02-22T12:45:25;2.63;;;1.50;;
1382;SDS011;685;47.196;11.880;2023-02-22T12:47:59;2.70;;;2.27;;
1382;SDS011;685;47.196;11.880;2023-02-22T12:50:34;3.53;;;1.97;;
1382;SDS011;685;47.196;11.880;2023-02-22T12:53:06;4.10;;;1.70;;
1382;SDS011;685;47.196;11.880;2023-02-22T12:55:41;5.93;;;2.00;;
1382;SDS011;685;47.196;11.880;2023-02-22T12:58:17;3.23;;;1.60;;
1382;SDS011;685;47.196;11.880;2023-02-22T13:00:50;3.23;;;1.77;;
1382;SDS011;685;47.196;11.880;2023-02-22T13:06:15;5.57;;;1.60;;
1382;SDS011;685;47.196;11.880;2023-02-22T13:08:57;2.53;;;1.80;;
1382;SDS011;685;47.196;11.880;2023-02-22T13:11:32;2.93;;;1.73;;
1382;SDS011;685;47.196;11.880;2023-02-22T13:17:01;1.80;;;1.60;;
1382;SDS011;685;47.196;11.880;2023-02-22T13:19:34;3.30;;;1.63;;
1382;SDS011;685;47.196;11.880;2023-02-22T13:22:08;1.90;;;1.50;;
1382;SDS011;685;47.196;11.880;2023-02-22T13:24:46;2.93;;;1.73;;
1382;SDS011;685;47.196;11.880;2023-02-22T13:27:23;4.03;;;1.73;;
1382;SDS011;685;47.196;11.880;2023-02-22T13:29:54;2.80;;;1.97;;
1382;SDS011;685;47.196;11.880;2023-02-22T13:32:31;3.10;;;1.60;;
1382;SDS011;685;47.196;11.880;2023-02-22T13:35:19;2.30;;;1.40;;
1382;SDS011;685;47.196;11.880;2023-02-22T13:38:00;3.90;;;1.83;;
1382;SDS011;685;47.196;11.880;2023-02-22T13:41:05;1.70;;;1.40;;
1382;SDS011;685;47.196;11.880;2023-02-22T13:43:44;2.77;;;1.90;;
1382;SDS011;685;47.196;11.880;2023-02-22T13:46:28;3.10;;;2.00;;
1382;SDS011;685;47.196;11.880;2023-02-22T13:49:11;2.27;;;1.57;;
1382;SDS011;685;47.196;11.880;2023-02-22T13:51:49;3.60;;;1.90;;
1382;SDS011;685;47.196;11.880;2023-02-22T13:54:20;2.90;;;1.40;;
1382;SDS011;685;47.196;11.880;2023-02-22T13:56:52;3.90;;;1.73;;
1382;SDS011;685;47.196;11.880;2023-02-22T13:59:31;2.80;;;1.53;;
1382;SDS011;685;47.196;11.880;2023-02-22T14:02:00;4.20;;;1.47;;
1382;SDS011;685;47.196;11.880;2023-02-22T14:04:33;2.70;;;1.43;;
1382;SDS011;685;47.196;11.880;2023-02-22T14:13:11;1.90;;;1.30;;
1382;SDS011;685;47.196;11.880;2023-02-22T14:18:45;1.40;;;1.10;;
1382;SDS011;685;47.196;11.880;2023-02-22T14:21:15;1.70;;;1.20;;
1382;SDS011;685;47.196;11.880;2023-02-22T14:23:44;1.60;;;0.90;;
1382;SDS011;685;47.196;11.880;2023-02-22T14:26:14;3.30;;;1.40;;
1382;SDS011;685;47.196;11.880;2023-02-22T14:28:52;3.23;;;1.50;;
1382;SDS011;685;47.196;11.880;2023-02-22T14:31:22;1.93;;;1.30;;
1382;SDS011;685;47.196;11.880;2023-02-22T14:33:55;2.23;;;1.47;;
1382;SDS011;685;47.196;11.880;2023-02-22T14:36:32;3.87;;;1.87;;
1382;SDS011;685;47.196;11.880;2023-02-22T14:39:05;1.77;;;1.50;;
1382;SDS011;685;47.196;11.880;2023-02-22T14:41:39;2.40;;;1.70;;
1382;SDS011;685;47.196;11.880;2023-02-22T14:44:12;1.63;;;1.37;;
1382;SDS011;685;47.196;11.880;2023-02-22T14:46:41;3.83;;;2.03;;
1382;SDS011;685;47.196;11.880;2023-02-22T14:49:14;3.70;;;1.57;;
1382;SDS011;685;47.196;11.880;2023-02-22T14:51:48;2.90;;;1.60;;
1382;SDS011;685;47.196;11.880;2023-02-22T14:54:23;3.97;;;2.10;;
1382;SDS011;685;47.196;11.880;2023-02-22T14:56:56;3.63;;;2.20;;
1382;SDS011;685;47.196;11.880;2023-02-22T14:59:45;4.50;;;2.10;;
1382;SDS011;685;47.196;11.880;2023-02-22T15:02:17;3.07;;;1.97;;
1382;SDS011;685;47.196;11.880;2023-02-22T15:04:49;3.30;;;1.67;;
1382;SDS011;685;47.196;11.880;2023-02-22T15:07:22;5.77;;;2.63;;
1382;SDS011;685;47.196;11.880;2023-02-22T15:09:52;8.77;;;4.53;;
1382;SDS011;685;47.196;11.880;2023-02-22T15:12:33;9.00;;;5.60;;
1382;SDS011;685;47.196;11.880;2023-02-22T15:15:14;6.40;;;2.83;;
1382;SDS011;685;47.196;11.880;2023-02-22T15:17:46;3.37;;;2.43;;
1382;SDS011;685;47.196;11.880;2023-02-22T15:20:14;4.63;;;2.90;;
1382;SDS011;685;47.196;11.880;2023-02-22T15:22:44;6.07;;;2.80;;
1382;SDS011;685;47.196;11.880;2023-02-22T15:25:13;4.27;;;2.93;;
1382;SDS011;685;47.196;11.880;2023-02-22T15:27:41;5.13;;;3.30;;
1382;SDS011;685;47.196;11.880;2023-02-22T15:30:17;5.10;;;3.03;;
1382;SDS011;685;47.196;11.880;2023-02-22T15:32:47;5.10;;;3.17;;
1382;SDS011;685;47.196;11.880;2023-02-22T15:35:15;4.20;;;2.90;;
1382;SDS011;685;47.196;11.880;2023-02-22T15:37:56;5.30;;;2.60;;
1382;SDS011;685;47.196;11.880;2023-02-22T15:40:24;3.37;;;3.07;;
1382;SDS011;685;47.196;11.880;2023-02-22T15:42:57;4.33;;;2.57;;
1382;SDS011;685;47.196;11.880;2023-02-22T15:45:27;7.57;;;2.10;;
1382;SDS011;685;47.196;11.880;2023-02-22T15:47:56;3.93;;;2.40;;
1382;SDS011;685;47.196;11.880;2023-02-22T15:50:24;2.30;;;2.10;;
1382;SDS011;685;47.196;11.880;2023-02-22T15:52:53;3.73;;;2.87;;
1382;SDS011;685;47.196;11.880;2023-02-22T15:55:23;2.53;;;2.30;;
1382;SDS011;685;47.196;11.880;2023-02-22T15:57:53;4.23;;;2.80;;
1382;SDS011;685;47.196;11.880;2023-02-22T16:00:22;7.47;;;2.50;;
1382;SDS011;685;47.196;11.880;2023-02-22T16:02:58;3.33;;;2.40;;
1382;SDS011;685;47.196;11.880;2023-02-22T16:05:29;2.83;;;2.50;;
1382;SDS011;685;47.196;11.880;2023-02-22T16:08:00;5.83;;;2.67;;
1382;SDS011;685;47.196;11.880;2023-02-22T16:10:28;4.27;;;2.37;;
1382;SDS011;685;47.196;11.880;2023-02-22T16:13:07;3.30;;;2.20;;
1382;SDS011;685;47.196;11.880;2023-02-22T16:15:51;4.33;;;2.40;;
1382;SDS011;685;47.196;11.880;2023-02-22T16:18:25;4.47;;;2.53;;
1382;SDS011;685;47.196;11.880;2023-02-22T16:21:03;3.90;;;2.10;;
1382;SDS011;685;47.196;11.880;2023-02-22T16:23:41;2.60;;;1.50;;
1382;SDS011;685;47.196;11.880;2023-02-22T16:26:19;1.70;;;1.30;;